Time;durP1;ratioP1;P1;durP2;ratioP2;P2;SDS_P1;SDS_P2;PMS_P1;PMS_P2;Temp;Humidity;BMP_temperature;BMP_pressure;BME280_temperature;BME280_humidity;BME280_pressure;Samples;Min_cycle;Max_cycle;Signal;HPM_P1;HPM_P2
2023/03/01 00:00:40;;;;;;;;;;;-1.90;99.90;;;;;;5041153;28;19928;-82
2023/03/01 00:03:06;;;;;;;;;;;-1.70;99.90;;;;;;5046436;28;19920;-79
2023/03/01 00:05:33;;;;;;;;;;;-1.90;99.90;;;;;;5038439;28;19917;-80
2023/03/01 00:08:00;;;;;;;;;;;-2.00;99.90;;;;;;5023442;28;19920;-79
2023/03/01 00:10:26;;;;;;;;;;;-1.70;99.90;;;;;;5012408;28;19928;-79
2023/03/01 00:12:51;;;;;;;;;;;-1.60;99.90;;;;;;5025840;28;19920;-81
2023/03/01 00:15:17;;;;;;;;;;;-1.80;99.90;;;;;;5026396;28;19929;-81
2023/03/01 00:17:43;;;;;;;;;;;-2.10;99.90;;;;;;5042142;28;20580;-81
2023/03/01 00:20:10;;;;;;;;;;;-2.00;99.90;;;;;;5025535;28;19927;-81
2023/03/01 00:22:36;;;;;;;;;;;-1.90;99.90;;;;;;5040461;28;19924;-81
2023/03/01 00:25:05;;;;;;;;;;;-1.80;99.90;;;;;;5040803;28;19971;-82
2023/03/01 00:27:30;;;;;;;;;;;-2.00;99.90;;;;;;5039272;28;20016;-81
2023/03/01 00:29:56;;;;;;;;;;;-1.80;99.90;;;;;;5028395;28;20263;-81
2023/03/01 00:32:21;;;;;;;;;;;-2.10;99.90;;;;;;5030884;28;19916;-80
2023/03/01 00:34:54;;;;;;;;;;;-2.10;99.90;;;;;;5041952;28;19974;-80
2023/03/01 00:37:23;;;;;;;;;;;-2.20;99.90;;;;;;5038905;28;19948;-81
2023/03/01 00:39:48;;;;;;;;;;;-2.10;99.90;;;;;;5035796;28;20003;-80
2023/03/01 00:42:14;;;;;;;;;;;-2.00;99.90;;;;;;5048742;28;20011;-80
2023/03/01 00:44:41;;;;;;;;;;;-2.10;99.90;;;;;;5028422;28;19932;-80
2023/03/01 00:47:06;;;;;;;;;;;-2.10;99.90;;;;;;5043347;28;19916;-81
2023/03/01 00:49:32;;;;;;;;;;;-2.00;99.90;;;;;;5049957;28;19917;-78
2023/03/01 00:51:57;;;;;;;;;;;-2.00;99.90;;;;;;5038038;28;20007;-80
2023/03/01 00:54:23;;;;;;;;;;;-1.80;99.90;;;;;;5037410;28;19966;-81
2023/03/01 00:56:50;;;;;;;;;;;-2.00;99.90;;;;;;5047442;28;19924;-80
2023/03/01 00:59:15;;;;;;;;;;;-2.40;99.90;;;;;;5047916;28;20354;-80
2023/03/01 01:01:42;;;;;;;;;;;-2.30;99.90;;;;;;5045176;28;19917;-81
2023/03/01 01:04:10;;;;;;;;;;;-2.20;99.90;;;;;;5050300;28;19916;-81
2023/03/01 01:06:42;;;;;;;;;;;-2.20;99.90;;;;;;5048909;28;19999;-81
2023/03/01 01:09:08;;;;;;;;;;;-2.20;99.90;;;;;;5044636;28;20011;-79
2023/03/01 01:11:35;;;;;;;;;;;-2.10;99.90;;;;;;5045169;28;19927;-80
2023/03/01 01:14:03;;;;;;;;;;;-2.30;99.90;;;;;;5049403;28;20326;-79
2023/03/01 01:16:31;;;;;;;;;;;-2.30;99.90;;;;;;5049206;28;19924;-79
2023/03/01 01:18:57;;;;;;;;;;;-2.20;99.90;;;;;;5023610;28;19917;-80
2023/03/01 01:21:23;;;;;;;;;;;-2.20;99.90;;;;;;5048452;28;19963;-80
2023/03/01 01:23:49;;;;;;;;;;;-2.30;99.90;;;;;;5041328;28;19963;-79
2023/03/01 01:26:17;;;;;;;;;;;-2.10;99.90;;;;;;5040660;28;20009;-80
2023/03/01 01:28:49;;;;;;;;;;;-2.20;99.90;;;;;;5048518;28;19927;-82
2023/03/01 01:31:15;;;;;;;;;;;-2.30;99.90;;;;;;5033661;28;20456;-81
2023/03/01 01:33:46;;;;;;;;;;;-2.20;99.90;;;;;;5047692;28;19928;-81
2023/03/01 01:36:24;;;;;;;;;;;-2.40;99.90;;;;;;5048002;28;19932;-82
2023/03/01 01:38:50;;;;;;;;;;;-2.40;99.90;;;;;;5047935;28;19921;-83
2023/03/01 01:41:23;;;;;;;;;;;-2.20;99.90;;;;;;5041037;28;20008;-82
2023/03/01 01:44:08;;;;;;;;;;;-2.20;99.90;;;;;;5042349;28;19970;-81
2023/03/01 01:46:35;;;;;;;;;;;-2.30;99.90;;;;;;5047192;28;19917;-82
2023/03/01 01:49:06;;;;;;;;;;;-2.10;99.90;;;;;;5049882;28;20051;-81
2023/03/01 01:51:38;;;;;;;;;;;-2.20;99.90;;;;;;5032896;28;19917;-82
2023/03/01 01:54:08;;;;;;;;;;;-2.30;99.90;;;;;;5041086;28;20281;-82
2023/03/01 01:56:35;;;;;;;;;;;-2.20;99.90;;;;;;5045530;28;19970;-81
2023/03/01 01:59:01;;;;;;;;;;;-2.30;99.90;;;;;;5048236;28;19920;-80
2023/03/01 02:01:26;;;;;;;;;;;-2.40;99.90;;;;;;5015005;28;19920;-82
2023/03/01 02:03:52;;;;;;;;;;;-2.30;99.90;;;;;;5045270;28;19973;-81
2023/03/01 02:06:22;;;;;;;;;;;-2.40;99.90;;;;;;5042522;28;19968;-81
2023/03/01 02:08:49;;;;;;;;;;;-2.50;99.90;;;;;;5044224;28;19923;-80
2023/03/01 02:11:14;;;;;;;;;;;-2.60;99.90;;;;;;5045726;28;19917;-81
2023/03/01 02:13:40;;;;;;;;;;;-2.60;99.90;;;;;;5039224;28;19993;-81
2023/03/01 02:16:16;;;;;;;;;;;-2.50;99.90;;;;;;5031465;28;20141;-81
2023/03/01 02:18:47;;;;;;;;;;;-2.60;99.90;;;;;;5040874;28;19963;-81
2023/03/01 02:21:16;;;;;;;;;;;-2.50;99.90;;;;;;5045369;28;19986;-81
2023/03/01 02:23:41;;;;;;;;;;;-2.70;99.90;;;;;;5040866;28;19928;-81
2023/03/01 02:26:24;;;;;;;;;;;-2.50;99.90;;;;;;5056209;28;19966;-80
2023/03/01 02:28:50;;;;;;;;;;;-2.70;99.90;;;;;;5026250;28;19924;-81
2023/03/01 02:34:04;;;;;;;;;;;-2.60;99.90;;;;;;5045903;28;21509;-81
2023/03/01 02:36:41;;;;;;;;;;;-2.90;99.90;;;;;;5039821;28;20366;-80
2023/03/01 02:39:14;;;;;;;;;;;-2.70;99.90;;;;;;5019508;28;19968;-80
2023/03/01 02:41:42;;;;;;;;;;;-2.80;99.90;;;;;;5063555;28;20003;-80
2023/03/01 02:44:08;;;;;;;;;;;-2.80;99.90;;;;;;5031047;28;20598;-81
2023/03/01 02:46:41;;;;;;;;;;;-2.70;99.90;;;;;;5027949;28;19995;-81
2023/03/01 02:49:22;;;;;;;;;;;-2.80;99.90;;;;;;5048086;28;19967;-81
2023/03/01 02:51:56;;;;;;;;;;;-2.90;99.90;;;;;;5048540;28;20023;-82
2023/03/01 02:54:25;;;;;;;;;;;-2.40;99.90;;;;;;5042809;28;19920;-82
2023/03/01 02:56:51;;;;;;;;;;;-2.90;99.90;;;;;;5049134;28;19978;-80
2023/03/01 02:59:19;;;;;;;;;;;-2.90;99.90;;;;;;5043037;28;19920;-81
2023/03/01 03:01:45;;;;;;;;;;;-2.80;99.90;;;;;;5043884;28;19962;-82
2023/03/01 03:04:16;;;;;;;;;;;-2.70;99.90;;;;;;5050286;28;20277;-81
2023/03/01 03:06:43;;;;;;;;;;;-2.70;99.90;;;;;;5040751;28;19921;-81
2023/03/01 03:09:09;;;;;;;;;;;-2.80;99.90;;;;;;5022294;28;20008;-80
2023/03/01 03:11:36;;;;;;;;;;;-2.70;99.90;;;;;;5048484;28;19980;-81
2023/03/01 03:14:03;;;;;;;;;;;-2.80;99.90;;;;;;5051570;28;19916;-81
2023/03/01 03:16:29;;;;;;;;;;;-3.00;99.90;;;;;;5051632;28;19920;-81
2023/03/01 03:19:04;;;;;;;;;;;-2.30;99.90;;;;;;5050435;28;20273;-81
2023/03/01 03:21:31;;;;;;;;;;;-2.90;99.90;;;;;;5023989;28;19982;-81
2023/03/01 03:23:57;;;;;;;;;;;-3.00;99.90;;;;;;5050886;28;19917;-81
2023/03/01 03:26:24;;;;;;;;;;;-3.10;99.90;;;;;;5040866;28;20004;-81
2023/03/01 03:28:52;;;;;;;;;;;-3.30;99.90;;;;;;5050939;28;19932;-81
2023/03/01 03:31:18;;;;;;;;;;;-2.90;99.90;;;;;;5047940;28;19995;-81
2023/03/01 03:33:43;;;;;;;;;;;-3.10;99.90;;;;;;5030812;28;20270;-81
2023/03/01 03:36:12;;;;;;;;;;;-3.10;99.90;;;;;;5049942;28;19931;-80
2023/03/01 03:38:55;;;;;;;;;;;-3.00;99.90;;;;;;5034731;28;19917;-80
2023/03/01 03:41:21;;;;;;;;;;;-3.30;99.90;;;;;;5047356;28;20338;-82
2023/03/01 03:43:53;;;;;;;;;;;-3.50;99.90;;;;;;5049855;28;20404;-80
2023/03/01 03:46:20;;;;;;;;;;;-3.60;99.90;;;;;;5049980;28;19960;-81
2023/03/01 03:48:45;;;;;;;;;;;-3.50;99.90;;;;;;5048387;28;19928;-82
2023/03/01 03:51:12;;;;;;;;;;;-3.80;99.90;;;;;;5044911;28;19921;-80
2023/03/01 03:53:38;;;;;;;;;;;-3.60;99.90;;;;;;5038174;28;19920;-81
2023/03/01 03:56:04;;;;;;;;;;;-3.50;99.90;;;;;;5045757;28;20465;-79
2023/03/01 03:58:29;;;;;;;;;;;-3.60;99.90;;;;;;5039665;28;19921;-81
2023/03/01 04:01:00;;;;;;;;;;;-3.50;99.90;;;;;;5044612;28;19921;-78
2023/03/01 04:03:27;;;;;;;;;;;-3.50;99.90;;;;;;5048495;28;19921;-80
2023/03/01 04:05:52;;;;;;;;;;;-3.70;99.90;;;;;;5047713;28;20371;-79
2023/03/01 04:08:20;;;;;;;;;;;-3.60;99.90;;;;;;5027394;28;20017;-79
2023/03/01 04:10:47;;;;;;;;;;;-3.30;99.90;;;;;;5047232;28;20016;-82
2023/03/01 04:13:14;;;;;;;;;;;-3.30;99.90;;;;;;5033105;28;19921;-80
2023/03/01 04:15:40;;;;;;;;;;;-3.30;99.90;;;;;;5042230;28;19967;-80
2023/03/01 04:18:06;;;;;;;;;;;-3.30;99.90;;;;;;5047411;28;19952;-79
2023/03/01 04:20:34;;;;;;;;;;;-3.60;99.90;;;;;;5031776;28;19917;-79
2023/03/01 04:23:10;;;;;;;;;;;-3.10;99.90;;;;;;5046743;28;19921;-80
2023/03/01 04:25:44;;;;;;;;;;;-3.90;99.90;;;;;;5055299;28;19921;-79
2023/03/01 04:28:10;;;;;;;;;;;-3.80;99.90;;;;;;5047302;28;19975;-79
2023/03/01 04:30:38;;;;;;;;;;;-3.80;99.90;;;;;;5050346;28;19921;-79
2023/03/01 04:33:07;;;;;;;;;;;-3.70;99.90;;;;;;5029849;28;19925;-79
2023/03/01 04:35:35;;;;;;;;;;;-3.70;99.90;;;;;;5045798;28;19924;-79
2023/03/01 04:38:01;;;;;;;;;;;-3.90;99.90;;;;;;5047781;28;19924;-80
2023/03/01 04:40:26;;;;;;;;;;;-3.70;99.90;;;;;;5047075;28;20043;-78
2023/03/01 04:42:53;;;;;;;;;;;-3.60;99.90;;;;;;5033406;28;19921;-80
2023/03/01 04:45:19;;;;;;;;;;;-3.50;99.90;;;;;;5050121;28;20243;-80
2023/03/01 04:47:45;;;;;;;;;;;-3.80;99.90;;;;;;5047371;28;19928;-80
2023/03/01 04:50:12;;;;;;;;;;;-3.70;99.90;;;;;;5041859;28;20373;-81
2023/03/01 04:52:46;;;;;;;;;;;-3.60;99.90;;;;;;5050835;28;20414;-81
2023/03/01 04:55:15;;;;;;;;;;;-3.50;99.90;;;;;;5040150;28;19975;-81
2023/03/01 04:57:41;;;;;;;;;;;-3.50;99.90;;;;;;5045755;28;19959;-79
2023/03/01 05:00:20;;;;;;;;;;;-3.60;99.90;;;;;;5043592;28;19932;-82
2023/03/01 05:02:46;;;;;;;;;;;-3.80;99.90;;;;;;5032441;28;19960;-81
2023/03/01 05:05:13;;;;;;;;;;;-3.60;99.90;;;;;;5046764;28;19921;-80
2023/03/01 05:07:38;;;;;;;;;;;-3.70;99.90;;;;;;5032466;28;19927;-81
2023/03/01 05:10:04;;;;;;;;;;;-3.80;99.90;;;;;;5046658;28;19921;-80
2023/03/01 05:12:30;;;;;;;;;;;-3.80;99.90;;;;;;5047441;28;19967;-81
2023/03/01 05:14:55;;;;;;;;;;;-3.70;99.90;;;;;;5031030;28;19920;-79
2023/03/01 05:17:21;;;;;;;;;;;-3.90;99.90;;;;;;5032879;28;20004;-79
2023/03/01 05:19:46;;;;;;;;;;;-3.50;99.90;;;;;;5032768;28;20373;-82
2023/03/01 05:22:12;;;;;;;;;;;-3.50;99.90;;;;;;5046260;28;20004;-81
2023/03/01 05:24:38;;;;;;;;;;;-3.70;99.90;;;;;;5051446;28;19962;-80
2023/03/01 05:27:04;;;;;;;;;;;-3.80;99.90;;;;;;5041388;28;19921;-81
2023/03/01 05:29:34;;;;;;;;;;;-3.90;99.90;;;;;;5048022;28;20365;-80
2023/03/01 05:32:01;;;;;;;;;;;-3.80;99.90;;;;;;5031967;28;19928;-81
2023/03/01 05:34:30;;;;;;;;;;;-4.10;99.90;;;;;;5049218;28;19947;-81
2023/03/01 05:36:56;;;;;;;;;;;-3.80;99.90;;;;;;5055044;28;20449;-81
2023/03/01 05:39:25;;;;;;;;;;;-4.10;99.90;;;;;;5050528;28;19920;-81
2023/03/01 05:41:56;;;;;;;;;;;-4.10;99.90;;;;;;5029364;28;19960;-81
2023/03/01 05:44:23;;;;;;;;;;;-4.20;99.90;;;;;;5015372;28;19916;-80
2023/03/01 05:46:49;;;;;;;;;;;-4.00;99.90;;;;;;5046061;28;20378;-81
2023/03/01 05:49:14;;;;;;;;;;;-3.90;99.90;;;;;;5045897;28;19986;-83
2023/03/01 05:51:41;;;;;;;;;;;-3.90;99.90;;;;;;5042622;28;19924;-81
2023/03/01 05:54:07;;;;;;;;;;;-4.00;99.90;;;;;;5050374;28;20401;-81
2023/03/01 05:56:34;;;;;;;;;;;-4.00;99.90;;;;;;5042380;28;20021;-81
2023/03/01 05:59:00;;;;;;;;;;;-4.10;99.90;;;;;;5045834;28;19917;-80
2023/03/01 06:01:29;;;;;;;;;;;-4.10;99.90;;;;;;5056272;28;20435;-82
2023/03/01 06:03:55;;;;;;;;;;;-4.30;99.90;;;;;;5034709;28;19924;-80
2023/03/01 06:06:21;;;;;;;;;;;-3.90;99.90;;;;;;5042852;28;19917;-85
2023/03/01 06:08:46;;;;;;;;;;;-4.30;99.90;;;;;;5043335;28;20454;-81
2023/03/01 06:11:12;;;;;;;;;;;-4.20;99.90;;;;;;5027221;28;20026;-82
2023/03/01 06:13:39;;;;;;;;;;;-4.30;99.90;;;;;;5044281;28;19916;-82
2023/03/01 06:16:06;;;;;;;;;;;-4.10;99.90;;;;;;5048043;28;19921;-82
2023/03/01 06:18:31;;;;;;;;;;;-4.20;99.90;;;;;;5041504;28;20390;-82
2023/03/01 06:20:57;;;;;;;;;;;-4.20;99.90;;;;;;5043034;28;20010;-83
2023/03/01 06:23:23;;;;;;;;;;;-4.20;99.90;;;;;;5046004;28;20002;-82
2023/03/01 06:25:49;;;;;;;;;;;-4.10;99.90;;;;;;5054722;28;19962;-81
2023/03/01 06:28:14;;;;;;;;;;;-4.10;99.90;;;;;;5030321;28;19928;-82
2023/03/01 06:30:40;;;;;;;;;;;-4.00;99.90;;;;;;5049160;28;19999;-83
2023/03/01 06:33:06;;;;;;;;;;;-4.00;99.90;;;;;;5055255;28;20265;-82
2023/03/01 06:35:31;;;;;;;;;;;-4.10;99.90;;;;;;5059245;28;19959;-83
2023/03/01 06:37:58;;;;;;;;;;;-4.00;99.90;;;;;;5056135;28;19928;-82
2023/03/01 06:40:31;;;;;;;;;;;-4.10;99.90;;;;;;5053047;28;20043;-82
2023/03/01 06:42:56;;;;;;;;;;;-4.20;99.90;;;;;;5043521;28;19917;-81
2023/03/01 06:45:22;;;;;;;;;;;-3.60;99.90;;;;;;5040206;28;20012;-81
2023/03/01 06:47:48;;;;;;;;;;;-3.90;99.90;;;;;;5050001;28;20011;-81
2023/03/01 06:50:22;;;;;;;;;;;-3.60;99.90;;;;;;5053755;28;19994;-84
2023/03/01 06:52:48;;;;;;;;;;;-3.30;99.90;;;;;;5026822;28;19917;-82
2023/03/01 06:55:13;;;;;;;;;;;-3.80;99.90;;;;;;5028052;28;19923;-82
2023/03/01 06:57:39;;;;;;;;;;;-3.70;99.90;;;;;;5053290;28;19920;-83
2023/03/01 07:00:05;;;;;;;;;;;-3.90;99.90;;;;;;5032360;28;20377;-81
2023/03/01 07:02:31;;;;;;;;;;;-3.90;99.90;;;;;;5039806;28;20009;-80
2023/03/01 07:04:56;;;;;;;;;;;-3.70;99.90;;;;;;5060291;28;20289;-81
2023/03/01 07:07:25;;;;;;;;;;;-3.60;99.90;;;;;;5060007;28;19923;-81
2023/03/01 07:09:51;;;;;;;;;;;-3.30;99.90;;;;;;5054335;28;19916;-80
2023/03/01 07:12:16;;;;;;;;;;;-3.50;99.90;;;;;;5036655;28;19924;-80
2023/03/01 07:14:43;;;;;;;;;;;-3.20;99.90;;;;;;5036521;28;19928;-80
2023/03/01 07:17:09;;;;;;;;;;;-3.40;99.90;;;;;;5034611;28;19960;-82
2023/03/01 07:19:34;;;;;;;;;;;-3.40;99.90;;;;;;5060240;28;19936;-82
2023/03/01 07:22:00;;;;;;;;;;;-3.40;99.90;;;;;;5044621;28;19960;-81
2023/03/01 07:24:26;;;;;;;;;;;-3.10;99.90;;;;;;5061994;28;19916;-80
2023/03/01 07:26:51;;;;;;;;;;;-3.30;99.90;;;;;;5040850;28;19917;-80
2023/03/01 07:29:18;;;;;;;;;;;-3.10;99.90;;;;;;5059756;28;19960;-81
2023/03/01 07:31:44;;;;;;;;;;;-3.10;99.90;;;;;;5046574;28;19928;-81
2023/03/01 07:34:10;;;;;;;;;;;-3.10;99.90;;;;;;5039104;28;20419;-80
2023/03/01 07:36:36;;;;;;;;;;;-3.00;99.90;;;;;;5035432;28;19931;-80
2023/03/01 07:39:02;;;;;;;;;;;-2.80;99.90;;;;;;5054756;28;19917;-79
2023/03/01 07:41:28;;;;;;;;;;;-2.80;99.90;;;;;;5055329;28;19917;-80
2023/03/01 07:43:54;;;;;;;;;;;-2.60;99.90;;;;;;5048582;28;19921;-79
2023/03/01 07:46:20;;;;;;;;;;;-2.60;99.90;;;;;;5046695;28;19920;-80
2023/03/01 07:48:46;;;;;;;;;;;-2.30;99.90;;;;;;5051044;28;19917;-80
2023/03/01 07:51:11;;;;;;;;;;;-2.20;99.90;;;;;;5051987;28;20377;-82
2023/03/01 07:53:37;;;;;;;;;;;-2.30;99.90;;;;;;5047801;28;19916;-81
2023/03/01 07:56:04;;;;;;;;;;;-1.70;99.90;;;;;;5044039;28;19925;-81
2023/03/01 07:58:29;;;;;;;;;;;-1.80;99.90;;;;;;5042045;28;19921;-82
2023/03/01 08:00:55;;;;;;;;;;;-2.00;99.90;;;;;;5044504;28;19916;-80
2023/03/01 08:03:20;;;;;;;;;;;-1.50;99.90;;;;;;5050319;28;20364;-80
2023/03/01 08:05:46;;;;;;;;;;;-1.80;99.90;;;;;;5024627;28;19924;-81
2023/03/01 08:08:12;;;;;;;;;;;-1.60;99.90;;;;;;5048769;28;20293;-80
2023/03/01 08:10:37;;;;;;;;;;;-1.50;99.90;;;;;;5049821;28;19924;-81
2023/03/01 08:13:09;;;;;;;;;;;-1.40;99.90;;;;;;5009625;28;19923;-82
2023/03/01 08:15:35;;;;;;;;;;;-1.10;99.90;;;;;;5036421;28;19921;-82
2023/03/01 08:18:01;;;;;;;;;;;-1.10;99.90;;;;;;5051374;28;19916;-80
2023/03/01 08:20:27;;;;;;;;;;;-0.50;99.90;;;;;;5033646;28;20490;-81
2023/03/01 08:22:52;;;;;;;;;;;-0.90;99.90;;;;;;5043260;28;19921;-81
2023/03/01 08:25:18;;;;;;;;;;;-0.30;99.90;;;;;;5051129;28;20025;-83
2023/03/01 08:27:43;;;;;;;;;;;-0.70;99.90;;;;;;5052679;28;20361;-82
2023/03/01 08:30:09;;;;;;;;;;;0.70;99.90;;;;;;5027385;28;19923;-82
2023/03/01 08:32:36;;;;;;;;;;;-0.40;99.90;;;;;;5046773;28;20378;-84
2023/03/01 08:35:02;;;;;;;;;;;-0.10;99.90;;;;;;5046189;28;19925;-82
2023/03/01 08:37:30;;;;;;;;;;;0.00;99.90;;;;;;5047974;28;19928;-81
2023/03/01 08:39:56;;;;;;;;;;;0.00;99.90;;;;;;5030806;28;20097;-81
2023/03/01 08:42:22;;;;;;;;;;;0.30;99.90;;;;;;5033849;28;20014;-81
2023/03/01 08:44:48;;;;;;;;;;;0.50;99.90;;;;;;5033886;28;19931;-82
2023/03/01 08:47:13;;;;;;;;;;;0.40;99.90;;;;;;5047707;28;19920;-82
2023/03/01 08:49:45;;;;;;;;;;;0.80;99.90;;;;;;5032833;28;20574;-81
2023/03/01 08:52:10;;;;;;;;;;;0.80;99.90;;;;;;5033400;28;19927;-80
2023/03/01 08:54:36;;;;;;;;;;;0.90;99.90;;;;;;5045606;28;19917;-81
2023/03/01 08:57:02;;;;;;;;;;;1.10;99.90;;;;;;5049709;28;19984;-82
2023/03/01 08:59:29;;;;;;;;;;;1.10;99.90;;;;;;5048434;28;20405;-82
2023/03/01 09:02:01;;;;;;;;;;;1.30;99.90;;;;;;5048826;28;19920;-83
2023/03/01 09:04:26;;;;;;;;;;;1.90;99.90;;;;;;5045192;28;19923;-83
2023/03/01 09:06:52;;;;;;;;;;;1.60;99.90;;;;;;5050834;28;19917;-83
2023/03/01 09:09:17;;;;;;;;;;;2.00;99.90;;;;;;5049156;28;19924;-84
2023/03/01 09:11:45;;;;;;;;;;;2.10;99.90;;;;;;5051275;28;20007;-83
2023/03/01 09:14:11;;;;;;;;;;;2.10;99.90;;;;;;5047035;28;19947;-83
2023/03/01 09:16:37;;;;;;;;;;;2.30;99.90;;;;;;5031658;28;19932;-82
2023/03/01 09:19:03;;;;;;;;;;;2.30;99.90;;;;;;5044460;28;19928;-83
2023/03/01 09:21:29;;;;;;;;;;;2.10;99.90;;;;;;5045241;28;20324;-83
2023/03/01 09:23:55;;;;;;;;;;;2.30;99.90;;;;;;5050885;28;20369;-83
2023/03/01 09:26:22;;;;;;;;;;;2.30;99.90;;;;;;5049982;28;19916;-82
2023/03/01 09:28:53;;;;;;;;;;;2.50;99.90;;;;;;5042750;28;19976;-83
2023/03/01 09:31:19;;;;;;;;;;;2.30;99.90;;;;;;5035187;28;19921;-82
2023/03/01 09:33:46;;;;;;;;;;;3.70;99.90;;;;;;5032271;28;20007;-84
2023/03/01 09:36:13;;;;;;;;;;;2.80;99.90;;;;;;5039204;28;19928;-83
2023/03/01 09:38:39;;;;;;;;;;;3.00;99.90;;;;;;5029313;28;20003;-81
2023/03/01 09:41:25;;;;;;;;;;;2.60;99.90;;;;;;5044883;28;20027;-83
2023/03/01 09:43:53;;;;;;;;;;;3.50;99.90;;;;;;5040087;28;19974;-82
2023/03/01 09:46:21;;;;;;;;;;;2.90;99.90;;;;;;5045997;28;20278;-82
2023/03/01 09:48:50;;;;;;;;;;;3.40;99.90;;;;;;5047334;28;19924;-83
2023/03/01 09:51:22;;;;;;;;;;;3.50;99.90;;;;;;5044638;28;20366;-84
2023/03/01 09:53:49;;;;;;;;;;;3.40;99.90;;;;;;5046554;28;19967;-82
2023/03/01 09:56:21;;;;;;;;;;;3.30;99.90;;;;;;5049072;28;19928;-80
2023/03/01 09:58:57;;;;;;;;;;;3.20;99.90;;;;;;5039373;28;19925;-80
2023/03/01 10:01:34;;;;;;;;;;;3.30;99.90;;;;;;5043266;28;19920;-80
2023/03/01 10:04:23;;;;;;;;;;;3.30;99.90;;;;;;5043567;28;19971;-79
2023/03/01 10:07:12;;;;;;;;;;;3.90;99.90;;;;;;5042190;28;19947;-82
2023/03/01 10:09:39;;;;;;;;;;;3.60;99.90;;;;;;5047109;28;19921;-80
2023/03/01 10:12:09;;;;;;;;;;;3.90;99.90;;;;;;5047930;28;19924;-81
2023/03/01 10:14:51;;;;;;;;;;;3.70;99.90;;;;;;5034460;28;20388;-82
2023/03/01 10:17:25;;;;;;;;;;;4.00;99.90;;;;;;5023738;28;20011;-81
2023/03/01 10:19:51;;;;;;;;;;;4.50;99.90;;;;;;5047294;28;19920;-80
2023/03/01 10:22:28;;;;;;;;;;;4.10;99.90;;;;;;5050185;28;19939;-81
2023/03/01 10:24:54;;;;;;;;;;;4.40;99.90;;;;;;5042703;28;19925;-82
2023/03/01 10:27:31;;;;;;;;;;;4.00;99.90;;;;;;5035444;28;19921;-82
2023/03/01 10:30:16;;;;;;;;;;;4.40;99.90;;;;;;5040810;28;19927;-82
2023/03/01 10:32:42;;;;;;;;;;;4.60;99.90;;;;;;5029889;28;20377;-80
2023/03/01 10:35:17;;;;;;;;;;;4.80;99.90;;;;;;5047359;28;20296;-82
2023/03/01 10:37:56;;;;;;;;;;;4.90;99.90;;;;;;5046208;28;19928;-81
2023/03/01 10:40:25;;;;;;;;;;;4.80;99.90;;;;;;5043907;28;19939;-86
2023/03/01 10:42:50;;;;;;;;;;;5.00;99.90;;;;;;5044126;28;20357;-83
2023/03/01 10:45:34;;;;;;;;;;;4.80;99.90;;;;;;5043869;28;19920;-83
2023/03/01 10:48:20;;;;;;;;;;;5.00;99.90;;;;;;5040651;28;19920;-81
2023/03/01 10:50:47;;;;;;;;;;;4.90;99.90;;;;;;5042856;28;19960;-81
2023/03/01 10:53:20;;;;;;;;;;;5.40;99.90;;;;;;5034321;28;19928;-83
2023/03/01 10:55:46;;;;;;;;;;;5.30;99.90;;;;;;5048909;28;19986;-80
2023/03/01 10:58:18;;;;;;;;;;;5.60;99.90;;;;;;5042852;28;19925;-84
2023/03/01 11:00:47;;;;;;;;;;;5.20;99.90;;;;;;5043403;28;19924;-81
2023/03/01 11:03:14;;;;;;;;;;;5.60;99.90;;;;;;5045288;28;20299;-84
2023/03/01 11:07:09;;;;;;;0.90;0.90;;;5.20;99.90;;;;;;5096949;27;20574;-79
2023/03/01 11:09:37;;;;;;;0.50;0.50;;;5.50;99.90;;;;;;5070460;28;20054;-79
2023/03/01 11:12:12;;;;;;;0.95;0.95;;;5.50;99.90;;;;;;5075283;28;20032;-79
2023/03/01 11:14:46;;;;;;;0.60;0.60;;;5.60;99.90;;;;;;5090589;28;20037;-79
2023/03/01 11:17:28;;;;;;;0.60;0.60;;;5.60;99.90;;;;;;5098853;28;20485;-79
2023/03/01 11:20:13;;;;;;;0.60;0.60;;;5.80;99.90;;;;;;5071669;28;20048;-78
2023/03/01 11:22:50;;;;;;;0.60;0.60;;;5.80;99.90;;;;;;5075072;28;20499;-78
2023/03/01 11:25:36;;;;;;;0.60;0.60;;;5.90;99.90;;;;;;5062861;28;20041;-78
2023/03/01 11:28:04;;;;;;;0.88;0.88;;;5.90;99.90;;;;;;5068639;28;20089;-77
2023/03/01 11:31:05;;;;;;;0.70;0.70;;;5.90;99.90;;;;;;5057336;28;20033;-78
2023/03/01 11:33:46;;;;;;;0.50;0.50;;;6.00;99.90;;;;;;5079742;28;20044;-79
2023/03/01 11:36:32;;;;;;;0.63;0.63;;;6.00;99.90;;;;;;5063686;28;20040;-79
2023/03/01 11:39:05;;;;;;;0.88;0.88;;;5.90;99.90;;;;;;5073761;28;20044;-78
2023/03/01 11:41:33;;;;;;;1.10;1.10;;;6.00;99.90;;;;;;5059153;28;20045;-79
2023/03/01 11:44:25;;;;;;;1.00;1.00;;;6.10;99.90;;;;;;5060858;28;20592;-79
2023/03/01 11:46:53;;;;;;;0.80;0.80;;;6.20;99.90;;;;;;5078797;28;20045;-79
2023/03/01 11:49:33;;;;;;;0.60;0.60;;;6.20;99.90;;;;;;5083959;28;20157;-78
2023/03/01 11:51:59;;;;;;;1.45;1.35;;;6.20;99.90;;;;;;5054960;28;20044;-78
2023/03/01 11:54:42;;;;;;;0.68;0.68;;;6.30;99.90;;;;;;5044992;28;20037;-78
2023/03/01 11:57:29;;;;;;;1.13;1.10;;;6.30;99.90;;;;;;5073442;28;20401;-78
2023/03/01 12:00:24;;;;;;;0.63;0.63;;;6.30;99.90;;;;;;5058196;28;20048;-78
2023/03/01 12:03:04;;;;;;;0.70;0.70;;;6.40;99.90;;;;;;5050787;28;20043;-79
2023/03/01 12:06:03;;;;;;;0.85;0.85;;;6.50;99.90;;;;;;5075651;28;20092;-80
2023/03/01 12:08:42;;;;;;;0.60;0.60;;;6.70;99.90;;;;;;5072504;28;20068;-78
2023/03/01 12:11:27;;;;;;;1.25;0.95;;;6.70;99.90;;;;;;5052439;28;20097;-78
2023/03/01 12:14:05;;;;;;;0.85;0.75;;;6.70;99.90;;;;;;5056944;28;20041;-79
2023/03/01 12:16:35;;;;;;;0.60;0.60;;;6.80;99.90;;;;;;5061931;28;20080;-78
2023/03/01 12:19:07;;;;;;;0.95;0.95;;;6.90;99.90;;;;;;5035427;28;20048;-80
2023/03/01 12:21:51;;;;;;;0.60;0.60;;;7.00;99.90;;;;;;5033824;28;20116;-80
2023/03/01 12:24:55;;;;;;;0.75;0.75;;;7.00;99.90;;;;;;5040415;28;20083;-79
2023/03/01 12:27:44;;;;;;;1.30;0.90;;;7.00;99.90;;;;;;5048425;28;20052;-80
2023/03/01 12:30:25;;;;;;;0.50;0.50;;;7.10;99.90;;;;;;5064984;28;20152;-79
2023/03/01 12:33:12;;;;;;;1.67;1.58;;;7.20;99.90;;;;;;5046950;28;20041;-78
2023/03/01 12:35:54;;;;;;;;;;;7.10;99.90;;;;;;5050592;28;20040;-78
2023/03/01 12:38:34;;;;;;;1.67;1.35;;;7.20;99.90;;;;;;5048493;28;20317;-78
2023/03/01 12:41:09;;;;;;;1.00;1.00;;;7.20;99.90;;;;;;5056907;28;20473;-79
2023/03/01 12:44:05;;;;;;;0.60;0.60;;;7.30;99.90;;;;;;5070953;28;20036;-80
2023/03/01 12:46:45;;;;;;;2.03;1.20;;;7.40;99.90;;;;;;5029139;28;20051;-79
2023/03/01 12:49:19;;;;;;;0.57;0.57;;;7.50;99.90;;;;;;5050660;28;20036;-80
2023/03/01 12:51:53;;;;;;;0.50;0.50;;;7.60;99.90;;;;;;5051240;28;20052;-79
2023/03/01 12:54:31;;;;;;;0.60;0.60;;;7.70;99.90;;;;;;5052928;28;20037;-80
2023/03/01 12:57:20;;;;;;;0.98;0.98;;;7.70;99.90;;;;;;5051962;28;20084;-80
2023/03/01 12:59:57;;;;;;;1.25;1.25;;;7.70;99.90;;;;;;5052105;28;20036;-80
2023/03/01 13:02:25;;;;;;;0.50;0.50;;;7.70;99.90;;;;;;5048700;28;20101;-80
2023/03/01 13:05:22;;;;;;;1.50;1.40;;;7.80;99.90;;;;;;5049235;28;20059;-80
2023/03/01 13:07:58;;;;;;;1.13;0.80;;;7.80;99.90;;;;;;5057689;28;20048;-81
2023/03/01 13:10:51;;;;;;;0.45;0.45;;;7.90;99.90;;;;;;5055392;28;20043;-81
2023/03/01 13:13:26;;;;;;;0.40;0.40;;;8.00;99.90;;;;;;5055445;28;20052;-81
2023/03/01 13:15:53;;;;;;;1.27;1.25;;;8.00;99.90;;;;;;5050799;28;20050;-82
2023/03/01 13:18:27;;;;;;;0.60;0.60;;;8.00;99.90;;;;;;5052509;28;20043;-79
2023/03/01 13:20:57;;;;;;;0.73;0.73;;;8.10;99.90;;;;;;5050450;28;20052;-81
2023/03/01 13:23:22;;;;;;;1.00;0.70;;;8.10;99.90;;;;;;5051286;28;20477;-80
2023/03/01 13:26:01;;;;;;;0.50;0.50;;;8.20;99.90;;;;;;5050162;28;20044;-79
2023/03/01 13:28:40;;;;;;;0.70;0.70;;;8.30;99.90;;;;;;5052924;28;20048;-79
2023/03/01 13:31:07;;;;;;;2.70;1.05;;;8.30;99.90;;;;;;5052058;28;20474;-80
2023/03/01 13:33:40;;;;;;;0.70;0.70;;;8.30;99.90;;;;;;5051062;28;20032;-82
2023/03/01 13:36:08;;;;;;;0.50;0.50;;;8.40;99.90;;;;;;5054828;28;20686;-79
2023/03/01 13:38:55;;;;;;;0.73;0.73;;;8.60;99.90;;;;;;5048196;28;20056;-79
2023/03/01 13:41:39;;;;;;;1.00;1.00;;;8.70;99.90;;;;;;5053521;28;20135;-82
2023/03/01 13:44:28;;;;;;;0.77;0.77;;;8.80;99.90;;;;;;5063011;28;20052;-81
2023/03/01 13:46:58;;;;;;;1.70;1.60;;;8.90;99.90;;;;;;5027586;28;20149;-80
2023/03/01 13:49:33;;;;;;;0.45;0.45;;;9.00;99.90;;;;;;5049629;28;20079;-79
2023/03/01 13:51:59;;;;;;;0.73;0.70;;;9.10;99.90;;;;;;5050552;28;20523;-80
2023/03/01 13:54:29;;;;;;;0.80;0.80;;;9.50;99.90;;;;;;5034211;28;20076;-81
2023/03/01 13:56:56;;;;;;;1.23;1.20;;;9.90;99.90;;;;;;5053786;28;20371;-82
2023/03/01 13:59:26;;;;;;;3.00;0.65;;;10.40;99.90;;;;;;5067477;28;20036;-82
2023/03/01 14:01:57;;;;;;;0.28;0.28;;;10.90;99.90;;;;;;5048414;28;20041;-82
2023/03/01 14:04:26;;;;;;;0.40;0.40;;;11.10;99.90;;;;;;5049067;28;20086;-80
2023/03/01 14:07:12;;;;;;;1.42;1.33;;;11.20;99.90;;;;;;5064347;28;20045;-81
2023/03/01 14:09:42;;;;;;;0.90;0.90;;;11.40;99.90;;;;;;5045504;28;20410;-80
2023/03/01 14:12:29;;;;;;;0.32;0.32;;;11.70;99.90;;;;;;5056657;28;20046;-80
2023/03/01 14:15:18;;;;;;;0.60;0.60;;;12.00;99.90;;;;;;5047334;28;20089;-81
2023/03/01 14:17:57;;;;;;;0.40;0.40;;;12.30;99.90;;;;;;5049878;28;20111;-83
2023/03/01 14:20:30;;;;;;;0.70;0.70;;;12.50;99.90;;;;;;5051966;28;20075;-82